createdAt,value
2022-08-19T00:02:00.403Z,97.70
2022-08-19T00:04:32.522Z,97.60
2022-08-19T00:07:00.197Z,97.60
2022-08-19T00:09:27.520Z,97.70
2022-08-19T00:11:56.273Z,97.70
2022-08-19T00:14:25.613Z,97.60
2022-08-19T00:16:55.282Z,97.80
2022-08-19T00:19:23.517Z,98.30
2022-08-19T00:21:50.346Z,98.60
2022-08-19T00:24:17.210Z,98.80
2022-08-19T00:26:46.057Z,99.10
2022-08-19T00:29:15.777Z,99.10
2022-08-19T00:31:43.965Z,99.00
2022-08-19T00:34:12.735Z,99.10
2022-08-19T00:36:40.230Z,99.00
2022-08-19T00:39:07.278Z,99.00
2022-08-19T00:41:34.225Z,99.10
2022-08-19T00:44:07.463Z,98.90
2022-08-19T00:46:39.546Z,99.00
2022-08-19T00:49:20.913Z,99.30
2022-08-19T00:51:53.957Z,99.20
2022-08-19T00:54:28.259Z,99.20
2022-08-19T00:56:59.575Z,99.30
2022-08-19T01:00:00.416Z,99.90
2022-08-19T01:02:13.593Z,99.90
2022-08-19T01:04:40.259Z,99.90
2022-08-19T01:07:07.441Z,99.90
2022-08-19T01:09:34.929Z,99.90
2022-08-19T01:12:01.951Z,99.90
2022-08-19T01:14:28.867Z,99.90
2022-08-19T01:16:57.775Z,99.90
2022-08-19T01:19:43.951Z,99.90
2022-08-19T01:22:28.695Z,99.90
2022-08-19T01:24:57.950Z,99.90
2022-08-19T01:27:26.331Z,99.90
2022-08-19T01:29:53.013Z,99.90
2022-08-19T01:32:32.456Z,99.90
2022-08-19T01:35:05.099Z,99.90
2022-08-19T01:37:53.089Z,99.90
2022-08-19T01:40:21.934Z,99.90
2022-08-19T01:42:50.717Z,99.90
2022-08-19T01:45:19.375Z,99.90
2022-08-19T01:47:57.910Z,99.90
2022-08-19T01:50:30.628Z,99.90
2022-08-19T01:53:05.860Z,99.90
2022-08-19T01:55:34.552Z,99.90
2022-08-19T01:58:04.677Z,99.90
2022-08-19T02:00:33.111Z,99.90
2022-08-19T02:03:01.894Z,99.90
2022-08-19T02:05:30.017Z,99.90
2022-08-19T02:07:58.063Z,99.90
2022-08-19T02:10:25.201Z,99.90
2022-08-19T02:12:53.029Z,99.90
2022-08-19T02:15:21.157Z,99.90
2022-08-19T02:17:48.723Z,99.90
2022-08-19T02:20:16.336Z,99.90
2022-08-19T02:22:44.003Z,99.90
2022-08-19T02:25:13.399Z,99.90
2022-08-19T02:27:41.135Z,99.90
2022-08-19T02:30:14.229Z,99.90
2022-08-19T02:32:44.500Z,99.90
2022-08-19T02:35:12.749Z,99.90
2022-08-19T02:37:58.121Z,99.90
2022-08-19T02:40:24.869Z,99.90
2022-08-19T02:42:51.717Z,99.90
2022-08-19T02:45:18.623Z,99.90
2022-08-19T02:47:46.541Z,99.90
2022-08-19T02:50:13.790Z,99.90
2022-08-19T02:52:40.435Z,99.90
2022-08-19T02:55:07.558Z,99.90
2022-08-19T02:57:35.015Z,99.90
2022-08-19T03:00:02.624Z,99.90
2022-08-19T03:02:29.374Z,99.90
2022-08-19T03:04:56.042Z,99.90
2022-08-19T03:07:22.690Z,99.90
2022-08-19T03:09:49.368Z,99.90
2022-08-19T03:12:16.015Z,99.90
2022-08-19T03:14:42.715Z,99.90
2022-08-19T03:17:09.430Z,99.90
2022-08-19T03:19:36.230Z,99.90
2022-08-19T03:22:05.073Z,99.90
2022-08-19T03:24:32.369Z,99.90
2022-08-19T03:26:59.556Z,99.90
2022-08-19T03:29:31.148Z,99.90
2022-08-19T03:32:01.732Z,99.90
2022-08-19T03:34:31.646Z,99.90
2022-08-19T03:37:03.512Z,99.90
2022-08-19T03:39:31.035Z,99.90
2022-08-19T03:42:30.100Z,99.90
2022-08-19T03:44:46.048Z,99.90
2022-08-19T03:47:17.076Z,99.90
2022-08-19T03:49:44.083Z,99.90
2022-08-19T03:52:10.800Z,99.90
2022-08-19T03:54:39.162Z,99.90
2022-08-19T03:57:06.019Z,99.90
2022-08-19T03:59:36.122Z,99.90
2022-08-19T04:02:09.563Z,99.90
2022-08-19T04:04:38.454Z,99.90
2022-08-19T04:07:05.466Z,99.90
2022-08-19T04:09:32.274Z,99.90
2022-08-19T04:11:59.084Z,99.90
2022-08-19T04:14:31.161Z,99.90
2022-08-19T04:16:59.016Z,99.90
2022-08-19T04:19:26.487Z,99.90
2022-08-19T04:21:55.214Z,99.90
2022-08-19T04:24:23.517Z,99.90
2022-08-19T04:26:50.623Z,99.90
2022-08-19T04:29:25.527Z,99.90
2022-08-19T04:31:54.346Z,99.90
2022-08-19T04:34:24.191Z,99.90
2022-08-19T04:36:52.849Z,99.90
2022-08-19T04:39:47.271Z,99.90
2022-08-19T04:42:32.846Z,99.90
2022-08-19T04:44:59.733Z,99.90
2022-08-19T04:47:47.576Z,99.90
2022-08-19T04:50:13.891Z,99.90
2022-08-19T04:52:43.939Z,99.90
2022-08-19T04:55:12.217Z,99.90
2022-08-19T04:57:41.018Z,99.90
2022-08-19T05:00:09.561Z,99.90
2022-08-19T05:02:36.427Z,99.90
2022-08-19T05:05:03.535Z,99.90
2022-08-19T05:07:30.396Z,99.90
2022-08-19T05:09:58.891Z,99.90
2022-08-19T05:12:28.812Z,99.90
2022-08-19T05:14:57.934Z,99.90
2022-08-19T05:17:28.041Z,99.90
2022-08-19T05:20:14.955Z,99.90
2022-08-19T05:22:43.114Z,99.90
2022-08-19T05:25:13.777Z,99.90
2022-08-19T05:27:42.123Z,99.90
2022-08-19T05:30:10.023Z,99.90
2022-08-19T05:32:37.053Z,99.90
2022-08-19T05:35:05.367Z,99.90
2022-08-19T05:37:32.065Z,99.90
2022-08-19T05:39:58.824Z,99.90
2022-08-19T05:42:26.384Z,99.90
2022-08-19T05:44:53.057Z,99.90
2022-08-19T05:47:20.995Z,99.90
2022-08-19T05:49:48.545Z,99.90
2022-08-19T05:52:18.662Z,99.90
2022-08-19T05:54:50.953Z,99.90
2022-08-19T05:57:19.525Z,99.90
2022-08-19T05:59:46.717Z,99.90
2022-08-19T06:02:14.327Z,99.90
2022-08-19T06:04:43.802Z,99.90
2022-08-19T06:07:12.824Z,99.90
2022-08-19T06:09:40.591Z,99.90
2022-08-19T06:12:07.924Z,99.90
2022-08-19T06:14:40.165Z,99.90
2022-08-19T06:17:07.635Z,99.90
2022-08-19T06:19:34.634Z,99.90
2022-08-19T06:22:08.170Z,99.90
2022-08-19T06:24:36.027Z,99.90
2022-08-19T06:27:03.752Z,99.90
2022-08-19T06:29:31.084Z,99.90
2022-08-19T06:32:00.150Z,99.90
2022-08-19T06:34:29.354Z,99.90
2022-08-19T06:36:57.634Z,99.90
2022-08-19T06:39:27.183Z,99.90
2022-08-19T06:41:58.961Z,99.90
2022-08-19T06:44:40.179Z,99.90
2022-08-19T06:47:23.385Z,99.90
2022-08-19T06:50:03.807Z,99.90
2022-08-19T06:52:36.813Z,99.90
2022-08-19T06:55:06.558Z,99.90
2022-08-19T06:57:34.560Z,99.90
2022-08-19T07:00:01.676Z,99.90
2022-08-19T07:02:28.425Z,99.90
2022-08-19T07:04:58.766Z,99.90
2022-08-19T07:07:26.092Z,99.90
2022-08-19T07:09:59.007Z,99.90
2022-08-19T07:12:33.746Z,99.90
2022-08-19T07:15:02.046Z,99.90
2022-08-19T07:17:28.782Z,99.90
2022-08-19T07:19:56.199Z,99.90
2022-08-19T07:22:25.883Z,99.90
2022-08-19T07:24:53.495Z,99.90
2022-08-19T07:27:24.416Z,99.90
2022-08-19T07:29:56.103Z,99.90
2022-08-19T07:32:26.808Z,99.90
2022-08-19T07:34:53.688Z,99.90
2022-08-19T07:37:20.330Z,99.90
2022-08-19T07:39:47.108Z,99.90
2022-08-19T07:42:14.620Z,99.90
2022-08-19T07:44:42.430Z,99.90
2022-08-19T07:47:48.092Z,99.90
2022-08-19T07:50:07.788Z,99.90
2022-08-19T07:52:36.743Z,99.50
2022-08-19T07:55:04.858Z,98.90
2022-08-19T07:57:31.643Z,99.30
2022-08-19T07:59:58.474Z,98.10
2022-08-19T08:02:25.174Z,97.20
2022-08-19T08:05:10.668Z,97.60
2022-08-19T08:07:56.081Z,97.70
2022-08-19T08:10:24.496Z,96.30
2022-08-19T08:13:08.757Z,95.30
2022-08-19T08:15:42.717Z,96.20
2022-08-19T08:18:10.703Z,95.70
2022-08-19T08:20:37.561Z,96.20
2022-08-19T08:23:22.901Z,95.70
2022-08-19T08:25:49.985Z,95.20
2022-08-19T08:28:18.526Z,94.80
2022-08-19T08:30:48.240Z,94.40
2022-08-19T08:33:34.235Z,94.80
2022-08-19T08:36:05.990Z,94.40
2022-08-19T08:38:39.167Z,95.60
2022-08-19T08:41:35.734Z,95.80
2022-08-19T08:44:08.221Z,95.40
2022-08-19T08:46:54.490Z,95.20
2022-08-19T08:49:52.419Z,95.40
2022-08-19T08:52:36.221Z,95.10
2022-08-19T08:55:10.790Z,94.40
2022-08-19T08:57:46.202Z,94.50
2022-08-19T09:00:17.650Z,94.50
2022-08-19T09:02:45.266Z,92.60
2022-08-19T09:05:22.349Z,93.00
2022-08-19T09:08:09.730Z,93.20
2022-08-19T09:10:55.378Z,92.20
2022-08-19T09:13:37.287Z,91.90
2022-08-19T09:16:27.721Z,91.40
2022-08-19T09:18:58.948Z,90.40
2022-08-19T09:21:30.352Z,89.20
2022-08-19T09:23:58.662Z,89.00
2022-08-19T09:26:35.290Z,88.50
2022-08-19T09:29:14.264Z,88.90
2022-08-19T09:31:41.202Z,90.50
2022-08-19T09:34:09.265Z,90.60
2022-08-19T09:36:50.331Z,89.60
2022-08-19T09:39:18.062Z,88.60
2022-08-19T09:41:47.653Z,87.70
2022-08-19T09:44:15.945Z,87.90
2022-08-19T09:46:43.092Z,87.50
2022-08-19T09:49:09.900Z,86.20
2022-08-19T09:51:36.570Z,84.90
2022-08-19T09:54:05.595Z,83.90
2022-08-19T09:56:33.047Z,83.90
2022-08-19T09:59:02.834Z,83.90
2022-08-19T10:01:31.423Z,84.40
2022-08-19T10:03:59.998Z,84.50
2022-08-19T10:06:45.761Z,84.10
2022-08-19T10:09:15.032Z,84.60
2022-08-19T10:11:52.206Z,84.30
2022-08-19T10:14:23.094Z,84.10
2022-08-19T10:16:50.216Z,84.20
2022-08-19T10:19:16.914Z,83.10
2022-08-19T10:21:54.162Z,83.30
2022-08-19T10:24:21.567Z,82.80
2022-08-19T10:26:49.431Z,82.50
2022-08-19T10:29:32.800Z,82.90
2022-08-19T10:32:05.399Z,83.30
2022-08-19T10:34:38.314Z,83.40
2022-08-19T10:37:18.074Z,84.20
2022-08-19T10:39:51.342Z,84.20
2022-08-19T10:42:19.479Z,82.40
2022-08-19T10:44:47.561Z,81.30
2022-08-19T10:47:17.815Z,82.00
2022-08-19T10:50:13.156Z,82.70
2022-08-19T10:52:50.201Z,82.80
2022-08-19T10:55:41.850Z,82.00
2022-08-19T10:58:23.487Z,81.10
2022-08-19T11:00:58.567Z,81.10
2022-08-19T11:03:28.645Z,81.00
2022-08-19T11:06:03.918Z,80.10
2022-08-19T11:08:31.667Z,80.00
2022-08-19T11:11:02.047Z,79.80
2022-08-19T11:13:30.003Z,79.10
2022-08-19T11:16:07.090Z,78.20
2022-08-19T11:18:42.097Z,78.40
2022-08-19T11:21:14.797Z,77.60
2022-08-19T11:23:41.843Z,77.60
2022-08-19T11:26:08.934Z,76.80
2022-08-19T11:28:35.893Z,76.40
2022-08-19T11:31:04.200Z,75.70
2022-08-19T11:33:31.861Z,74.70
2022-08-19T11:36:00.807Z,75.70
2022-08-19T11:38:27.835Z,76.20
2022-08-19T11:40:59.368Z,74.10
2022-08-19T11:43:27.589Z,74.30
2022-08-19T11:45:55.456Z,72.70
2022-08-19T11:48:22.973Z,73.70
2022-08-19T11:50:50.679Z,74.70
2022-08-19T11:53:19.799Z,75.30
2022-08-19T11:55:47.186Z,75.00
2022-08-19T11:58:19.167Z,75.60
2022-08-19T12:00:46.394Z,76.20
2022-08-19T12:03:14.464Z,76.20
2022-08-19T12:05:42.494Z,75.80
2022-08-19T12:08:09.706Z,75.50
2022-08-19T12:10:37.048Z,75.80
2022-08-19T12:13:04.498Z,76.00
2022-08-19T12:15:37.147Z,75.80
2022-08-19T12:18:05.398Z,75.50
2022-08-19T12:20:32.073Z,75.30
2022-08-19T12:23:02.611Z,74.80
2022-08-19T12:25:29.258Z,74.00
2022-08-19T12:27:57.603Z,73.00
2022-08-19T12:30:24.946Z,73.00
2022-08-19T12:32:52.212Z,73.30
2022-08-19T12:35:21.046Z,72.80
2022-08-19T12:37:57.016Z,73.30
2022-08-19T12:40:26.310Z,73.60
2022-08-19T12:42:54.828Z,73.90
2022-08-19T12:45:21.545Z,73.60
2022-08-19T12:47:49.604Z,73.60
2022-08-19T12:50:16.679Z,73.00
2022-08-19T12:52:43.449Z,72.50
2022-08-19T12:55:11.949Z,72.30
2022-08-19T12:57:38.967Z,72.40
2022-08-19T13:00:08.293Z,71.80
2022-08-19T13:02:38.227Z,72.40
2022-08-19T13:05:09.058Z,73.00
2022-08-19T13:07:36.594Z,72.20
2022-08-19T13:10:03.871Z,70.70
2022-08-19T13:12:30.934Z,70.50
2022-08-19T13:14:57.690Z,70.10
2022-08-19T13:17:25.499Z,70.60
2022-08-19T13:19:52.394Z,70.20
2022-08-19T13:22:19.203Z,70.30
2022-08-19T13:24:47.378Z,69.90
2022-08-19T13:27:15.991Z,70.60
2022-08-19T13:30:01.691Z,70.40
2022-08-19T13:32:49.060Z,70.00
2022-08-19T13:35:17.148Z,71.30
2022-08-19T13:37:44.795Z,71.80
2022-08-19T13:40:18.007Z,71.70
2022-08-19T13:42:47.274Z,71.80
2022-08-19T13:45:20.477Z,71.20
2022-08-19T13:47:48.303Z,70.90
2022-08-19T13:50:19.918Z,71.10
2022-08-19T13:52:48.266Z,71.30
2022-08-19T13:55:16.014Z,71.10
2022-08-19T13:57:54.213Z,70.90
2022-08-19T14:00:22.402Z,70.00
2022-08-19T14:02:52.513Z,69.90
2022-08-19T14:05:20.467Z,69.70
2022-08-19T14:07:48.181Z,70.00
2022-08-19T14:10:16.178Z,70.00
2022-08-19T14:12:42.886Z,70.10
2022-08-19T14:15:11.219Z,70.00
2022-08-19T14:17:42.991Z,70.10
2022-08-19T14:20:17.571Z,70.00
2022-08-19T14:22:46.828Z,69.70
2022-08-19T14:25:19.706Z,68.60
2022-08-19T14:27:46.722Z,68.30
2022-08-19T14:30:16.230Z,68.20
2022-08-19T14:32:44.286Z,68.00
2022-08-19T14:35:13.550Z,68.60
2022-08-19T14:37:45.682Z,67.80
2022-08-19T14:40:15.118Z,67.70
2022-08-19T14:42:42.702Z,67.30
2022-08-19T14:45:10.951Z,67.20
2022-08-19T14:47:39.678Z,67.20
2022-08-19T14:50:10.554Z,67.60
2022-08-19T14:52:44.915Z,67.80
2022-08-19T14:55:11.654Z,67.80
2022-08-19T14:57:38.460Z,68.00
2022-08-19T15:00:05.947Z,68.00
2022-08-19T15:02:34.074Z,68.20
2022-08-19T15:05:02.518Z,68.30
2022-08-19T15:07:30.148Z,66.80
2022-08-19T15:09:57.481Z,66.10
2022-08-19T15:12:24.736Z,66.50
2022-08-19T15:14:53.632Z,65.70
2022-08-19T15:17:45.219Z,66.30
2022-08-19T15:20:13.555Z,65.80
2022-08-19T15:22:43.070Z,66.20
2022-08-19T15:25:13.237Z,65.80
2022-08-19T15:27:41.608Z,65.80
2022-08-19T15:30:10.697Z,66.50
2022-08-19T15:32:39.006Z,66.00
2022-08-19T15:35:08.032Z,66.30
2022-08-19T15:37:37.468Z,67.10
2022-08-19T15:40:06.437Z,67.10
2022-08-19T15:42:35.672Z,66.70
2022-08-19T15:45:02.738Z,67.10
2022-08-19T15:47:35.034Z,67.00
2022-08-19T15:50:21.177Z,67.10
2022-08-19T15:52:49.971Z,67.40
2022-08-19T15:55:33.317Z,67.60
2022-08-19T15:58:29.680Z,67.20
2022-08-19T16:01:20.595Z,67.10
2022-08-19T16:04:13.706Z,67.10
2022-08-19T16:06:48.183Z,66.70
2022-08-19T16:09:16.812Z,66.80
2022-08-19T16:11:45.816Z,66.70
2022-08-19T16:14:15.147Z,66.80
2022-08-19T16:16:42.107Z,66.10
2022-08-19T16:19:11.873Z,66.30
2022-08-19T16:21:41.713Z,66.80
2022-08-19T16:24:10.706Z,66.30
2022-08-19T16:26:37.738Z,66.10
2022-08-19T16:29:08.951Z,66.30
2022-08-19T16:31:39.917Z,65.70
2022-08-19T16:34:06.796Z,66.60
2022-08-19T16:36:33.788Z,66.40
2022-08-19T16:39:00.988Z,66.60
2022-08-19T16:41:28.552Z,66.70
2022-08-19T16:43:55.354Z,66.90
2022-08-19T16:46:23.428Z,66.50
2022-08-19T16:48:53.897Z,66.50
2022-08-19T16:51:22.569Z,66.90
2022-08-19T16:53:51.907Z,67.10
2022-08-19T16:56:19.564Z,66.80
2022-08-19T16:58:46.258Z,67.30
2022-08-19T17:01:13.639Z,67.70
2022-08-19T17:03:41.102Z,68.00
2022-08-19T17:06:18.383Z,68.50
2022-08-19T17:08:49.509Z,69.00
2022-08-19T17:11:19.202Z,69.40
2022-08-19T17:13:47.905Z,70.00
2022-08-19T17:16:16.235Z,70.10
2022-08-19T17:18:43.157Z,70.80
2022-08-19T17:21:10.023Z,71.70
2022-08-19T17:23:43.737Z,72.00
2022-08-19T17:26:16.945Z,72.50
2022-08-19T17:28:48.546Z,72.50
2022-08-19T17:31:15.622Z,73.20
2022-08-19T17:33:42.318Z,73.50
2022-08-19T17:36:09.198Z,74.00
2022-08-19T17:38:37.572Z,74.30
2022-08-19T17:41:05.787Z,74.70
2022-08-19T17:43:37.842Z,75.10
2022-08-19T17:46:05.696Z,75.70
2022-08-19T17:48:40.337Z,76.30
2022-08-19T17:51:21.881Z,76.80
2022-08-19T17:53:50.677Z,77.10
2022-08-19T17:56:17.648Z,77.50
2022-08-19T17:58:45.090Z,77.70
2022-08-19T18:01:26.425Z,78.30
2022-08-19T18:03:56.322Z,78.70
2022-08-19T18:06:23.007Z,79.00
2022-08-19T18:08:49.689Z,79.00
2022-08-19T18:11:16.891Z,78.90
2022-08-19T18:13:43.603Z,79.30
2022-08-19T18:16:13.947Z,79.30
2022-08-19T18:18:43.233Z,79.50
2022-08-19T18:21:10.525Z,79.80
2022-08-19T18:23:44.598Z,80.00
2022-08-19T18:26:12.949Z,80.30
2022-08-19T18:28:39.855Z,80.30
2022-08-19T18:31:17.035Z,80.60
2022-08-19T18:33:44.869Z,80.80
2022-08-19T18:36:12.000Z,80.90
2022-08-19T18:38:57.375Z,81.50
2022-08-19T18:41:43.238Z,81.80
2022-08-19T18:44:28.895Z,81.70
2022-08-19T18:47:14.553Z,81.90
2022-08-19T18:49:41.228Z,81.90
2022-08-19T18:52:07.944Z,82.20
2022-08-19T18:54:35.566Z,82.50
2022-08-19T18:57:05.494Z,82.80
2022-08-19T18:59:32.720Z,82.90
2022-08-19T19:02:00.490Z,83.30
2022-08-19T19:04:31.097Z,83.40
2022-08-19T19:06:58.472Z,83.60
2022-08-19T19:09:26.505Z,83.60
2022-08-19T19:11:57.908Z,83.60
2022-08-19T19:14:48.549Z,83.80
2022-08-19T19:17:16.096Z,84.00
2022-08-19T19:19:43.828Z,84.30
2022-08-19T19:22:14.114Z,84.50
2022-08-19T19:24:44.568Z,84.80
2022-08-19T19:27:12.938Z,84.90
2022-08-19T19:29:42.173Z,85.30
2022-08-19T19:32:19.098Z,85.60
2022-08-19T19:34:45.853Z,85.90
2022-08-19T19:37:12.555Z,86.00
2022-08-19T19:39:46.092Z,85.90
2022-08-19T19:42:20.362Z,86.10
2022-08-19T19:44:50.306Z,86.00
2022-08-19T19:47:18.607Z,86.20
2022-08-19T19:50:10.529Z,86.30
2022-08-19T19:52:33.414Z,86.70
2022-08-19T19:55:01.246Z,87.00
2022-08-19T19:57:29.218Z,87.10
2022-08-19T19:59:56.411Z,87.20
2022-08-19T20:02:25.020Z,87.30
2022-08-19T20:04:51.861Z,87.30
2022-08-19T20:07:38.890Z,87.50
2022-08-19T20:10:06.108Z,87.50
2022-08-19T20:12:32.762Z,87.40
2022-08-19T20:14:59.496Z,87.50
2022-08-19T20:17:26.201Z,87.70
2022-08-19T20:19:53.374Z,87.90
2022-08-19T20:22:20.043Z,87.90
2022-08-19T20:24:48.288Z,88.00
2022-08-19T20:27:15.015Z,88.20
2022-08-19T20:29:44.263Z,88.70
2022-08-19T20:32:12.518Z,88.90
2022-08-19T20:34:40.680Z,89.30
2022-08-19T20:37:09.323Z,89.40
2022-08-19T20:39:36.773Z,89.70
2022-08-19T20:42:03.738Z,89.70
2022-08-19T20:44:30.654Z,89.90
2022-08-19T20:47:01.742Z,90.10
2022-08-19T20:49:30.138Z,90.00
2022-08-19T20:51:57.095Z,90.00
2022-08-19T20:54:24.358Z,89.90
2022-08-19T20:56:51.635Z,90.20
2022-08-19T20:59:19.980Z,90.60
2022-08-19T21:01:47.296Z,90.50
2022-08-19T21:04:14.449Z,90.40
2022-08-19T21:06:42.320Z,90.90
2022-08-19T21:09:12.824Z,91.50
2022-08-19T21:11:39.704Z,91.40
2022-08-19T21:14:06.487Z,91.60
2022-08-19T21:16:33.809Z,92.30
2022-08-19T21:19:01.106Z,92.50
2022-08-19T21:21:28.152Z,93.00
2022-08-19T21:23:54.942Z,93.60
2022-08-19T21:26:21.732Z,93.90
2022-08-19T21:28:48.488Z,94.40
2022-08-19T21:31:16.345Z,94.70
2022-08-19T21:33:43.030Z,94.70
2022-08-19T21:36:09.910Z,94.80
2022-08-19T21:38:37.798Z,95.10
2022-08-19T21:41:06.402Z,95.10
2022-08-19T21:43:34.995Z,95.30
2022-08-19T21:46:01.954Z,95.20
2022-08-19T21:48:28.749Z,95.50
2022-08-19T21:50:55.500Z,95.60
2022-08-19T21:53:22.872Z,95.90
2022-08-19T21:55:53.344Z,96.50
2022-08-19T21:58:29.772Z,96.80
2022-08-19T22:01:01.521Z,97.00
2022-08-19T22:03:28.881Z,97.40
2022-08-19T22:05:55.525Z,98.10
2022-08-19T22:08:22.599Z,98.30
2022-08-19T22:10:49.577Z,98.60
2022-08-19T22:13:18.063Z,98.90
2022-08-19T22:15:45.612Z,99.00
2022-08-19T22:18:13.571Z,99.10
2022-08-19T22:20:40.462Z,99.40
2022-08-19T22:23:07.490Z,99.70
2022-08-19T22:25:40.834Z,99.60
2022-08-19T22:28:11.007Z,99.90
2022-08-19T22:30:41.769Z,99.90
2022-08-19T22:33:13.204Z,99.90
2022-08-19T22:35:41.517Z,99.90
2022-08-19T22:38:10.102Z,99.90
2022-08-19T22:40:42.474Z,99.90
2022-08-19T22:43:19.987Z,99.90
2022-08-19T22:45:48.475Z,99.90
2022-08-19T22:48:17.583Z,99.90
2022-08-19T22:51:06.882Z,99.90
2022-08-19T22:53:36.235Z,99.90
2022-08-19T22:56:04.611Z,99.90
2022-08-19T22:58:31.256Z,99.90
2022-08-19T23:00:58.189Z,99.90
2022-08-19T23:03:25.799Z,99.90
2022-08-19T23:05:52.676Z,99.90
2022-08-19T23:08:19.596Z,99.90
2022-08-19T23:10:47.197Z,99.90
2022-08-19T23:13:16.481Z,99.90
2022-08-19T23:15:44.846Z,99.90
2022-08-19T23:18:12.350Z,99.90
2022-08-19T23:20:42.593Z,99.90
2022-08-19T23:23:12.105Z,99.90
2022-08-19T23:25:40.146Z,99.90
2022-08-19T23:28:26.157Z,99.90
2022-08-19T23:30:53.397Z,99.90
2022-08-19T23:33:46.546Z,99.90
2022-08-19T23:36:17.974Z,99.90
2022-08-19T23:38:46.931Z,99.90
2022-08-19T23:41:15.384Z,99.90
2022-08-19T23:43:42.860Z,99.90
2022-08-19T23:46:12.947Z,99.90
2022-08-19T23:48:39.959Z,99.90
2022-08-19T23:51:09.728Z,99.90
2022-08-19T23:53:41.154Z,99.90
2022-08-19T23:56:09.582Z,99.90
2022-08-19T23:58:37.739Z,99.90
